Time;durP1;ratioP1;P1;durP2;ratioP2;P2;SDS_P1;SDS_P2;PMS_P1;PMS_P2;Temp;Humidity;BMP_temperature;BMP_pressure;BME280_temperature;BME280_humidity;BME280_pressure;Samples;Min_cycle;Max_cycle;Signal;HPM_P1;HPM_P2
2021/11/29 00:01:54;;;;;;;19.47;13.63;;;;;;;3.06;74.72;94977.94;4985901;28;20959;-68
2021/11/29 00:04:20;;;;;;;17.30;12.70;;;;;;;3.46;73.76;94985.09;4986010;28;20424;-68
2021/11/29 00:06:45;;;;;;;18.60;12.90;;;;;;;3.19;74.13;94981.84;4995645;28;20444;-68
2021/11/29 00:09:14;;;;;;;18.67;13.40;;;;;;;3.12;74.88;94991.19;5003525;28;20197;-68
2021/11/29 00:11:41;;;;;;;21.60;14.10;;;;;;;3.34;74.54;94984.59;4988101;28;20188;-68
2021/11/29 00:14:06;;;;;;;19.43;13.23;;;;;;;3.30;73.40;94985.88;4995332;28;20526;-68
2021/11/29 00:16:32;;;;;;;20.83;14.13;;;;;;;3.30;73.73;94985.88;4995009;28;20482;-69
2021/11/29 00:18:59;;;;;;;23.30;15.73;;;;;;;3.45;74.07;94997.22;4976845;28;20212;-68
2021/11/29 00:21:25;;;;;;;20.13;13.87;;;;;;;3.14;74.01;95005.63;4995797;28;20642;-68
2021/11/29 00:23:50;;;;;;;22.30;15.27;;;;;;;3.31;74.16;95005.63;4986324;28;20444;-68
2021/11/29 00:26:19;;;;;;;24.73;16.10;;;;;;;3.15;75.37;95003.81;4977289;28;20460;-68
2021/11/29 00:28:45;;;;;;;26.67;17.03;;;;;;;3.43;74.11;95006.91;4994092;28;20181;-68
2021/11/29 00:31:11;;;;;;;24.43;16.40;;;;;;;3.26;74.25;95007.88;4995138;28;20420;-66
2021/11/29 00:33:37;;;;;;;23.37;15.67;;;;;;;3.09;74.69;95007.88;4995134;28;20421;-68
2021/11/29 00:36:03;;;;;;;23.00;15.87;;;;;;;2.87;75.76;95014.44;5003008;28;20528;-67
2021/11/29 00:38:29;;;;;;;20.70;14.57;;;;;;;2.88;75.28;95013.47;4994429;28;20460;-69
2021/11/29 00:40:55;;;;;;;26.03;15.20;;;;;;;3.06;75.11;95023.69;4994050;28;20435;-67
2021/11/29 00:43:20;;;;;;;24.73;16.20;;;;;;;2.67;76.09;95019.91;4995631;28;20221;-68
2021/11/29 00:45:46;;;;;;;25.40;16.87;;;;;;;2.71;75.97;95030.72;4995014;28;20181;-67
2021/11/29 00:48:12;;;;;;;23.40;15.40;;;;;;;2.69;75.97;95027.47;5005534;28;20181;-68
2021/11/29 00:50:38;;;;;;;22.60;15.03;;;;;;;2.70;76.01;95034.28;4994993;28;20185;-68
2021/11/29 00:53:05;;;;;;;24.90;16.13;;;;;;;2.69;76.36;95030.06;5001774;28;20729;-68
2021/11/29 00:55:31;;;;;;;24.70;16.00;;;;;;;2.75;75.81;95027.66;4978718;28;20434;-68
2021/11/29 00:57:56;;;;;;;28.27;16.40;;;;;;;2.64;76.17;95033.13;5003337;28;20558;-68
2021/11/29 01:00:23;;;;;;;24.70;15.40;;;;;;;2.58;76.86;95034.56;4996636;28;20196;-69
2021/11/29 01:02:48;;;;;;;26.10;15.97;;;;;;;2.73;76.24;95039.94;4983117;28;20204;-68
2021/11/29 01:05:14;;;;;;;23.80;16.00;;;;;;;2.81;75.91;95041.75;5004207;28;20436;-71
2021/11/29 01:07:40;;;;;;;26.10;16.50;;;;;;;2.69;76.71;95048.19;4995506;28;20225;-68
2021/11/29 01:10:08;;;;;;;26.10;15.87;;;;;;;3.11;74.88;95046.50;4994952;28;20217;-66
2021/11/29 01:12:33;;;;;;;27.60;17.50;;;;;;;2.76;75.91;95054.38;5003443;28;20427;-66
2021/11/29 01:15:00;;;;;;;24.47;15.80;;;;;;;2.79;75.30;95058.41;4994270;28;20780;-67
2021/11/29 01:17:25;;;;;;;30.23;16.97;;;;;;;3.00;74.67;95060.59;4994648;28;20227;-66
2021/11/29 01:19:51;;;;;;;25.10;15.80;;;;;;;3.02;74.91;95058.66;4986007;28;20458;-67
2021/11/29 01:22:17;;;;;;;28.57;16.30;;;;;;;2.89;74.59;95064.25;4983656;28;20186;-67
2021/11/29 01:24:42;;;;;;;25.53;15.70;;;;;;;2.73;75.16;95065.81;4997186;28;20185;-69
2021/11/29 01:27:08;;;;;;;26.20;16.60;;;;;;;3.07;74.51;95064.16;4994263;28;20205;-72
2021/11/29 01:29:35;;;;;;;25.93;16.00;;;;;;;3.00;74.47;95066.56;4985251;28;20213;-68
2021/11/29 01:32:01;;;;;;;27.10;17.20;;;;;;;2.93;75.02;95073.34;4994011;28;20422;-68
2021/11/29 01:34:27;;;;;;;27.70;16.90;;;;;;;2.89;74.97;95070.25;4994354;28;20809;-72
2021/11/29 01:36:52;;;;;;;26.23;16.93;;;;;;;2.87;74.74;95073.94;5005111;28;20459;-72
2021/11/29 01:39:18;;;;;;;24.60;16.07;;;;;;;2.86;75.54;95075.75;4998731;28;20185;-68
2021/11/29 01:41:45;;;;;;;27.90;16.60;;;;;;;3.26;74.23;95072.63;5000158;28;20188;-68
2021/11/29 01:44:11;;;;;;;28.33;18.00;;;;;;;2.52;75.96;95073.16;4990055;28;20192;-69
2021/11/29 01:46:37;;;;;;;27.60;16.40;;;;;;;2.61;75.88;95077.41;5009593;28;20451;-68
2021/11/29 01:49:03;;;;;;;28.40;17.37;;;;;;;2.41;76.03;95087.16;4987566;28;20620;-67
2021/11/29 01:51:29;;;;;;;27.23;16.70;;;;;;;2.52;76.71;95079.13;5006781;28;20440;-66
2021/11/29 01:53:55;;;;;;;30.10;17.73;;;;;;;2.80;75.67;95086.69;4999609;28;20495;-68
2021/11/29 01:56:21;;;;;;;30.37;18.27;;;;;;;2.94;75.33;95087.91;4997811;28;20209;-67
2021/11/29 01:58:46;;;;;;;31.00;18.33;;;;;;;3.46;74.04;95089.47;5000788;28;20268;-68
2021/11/29 02:01:17;;;;;;;28.57;17.67;;;;;;;3.26;73.67;95090.72;4993491;28;20204;-68
2021/11/29 02:03:45;;;;;;;27.67;17.40;;;;;;;3.30;73.80;95097.19;4996543;28;20183;-68
2021/11/29 02:06:11;;;;;;;31.80;19.20;;;;;;;3.31;72.98;95104.00;4998127;28;20797;-68
2021/11/29 02:08:37;;;;;;;32.23;18.67;;;;;;;2.91;74.74;95103.72;4999016;28;20528;-67
2021/11/29 02:11:04;;;;;;;28.83;17.40;;;;;;;3.01;74.67;95098.44;5000240;28;20192;-67
2021/11/29 02:13:30;;;;;;;34.90;19.00;;;;;;;3.05;74.75;95104.91;5003220;28;20937;-69
2021/11/29 02:15:56;;;;;;;32.30;18.97;;;;;;;2.51;75.97;95105.16;4999671;28;20444;-69
2021/11/29 02:18:26;;;;;;;32.57;20.20;;;;;;;2.54;76.40;95102.28;5011940;28;21206;-67
2021/11/29 02:21:06;;;;;;;31.67;19.63;;;;;;;2.83;76.07;95109.69;4988347;28;20196;-67
2021/11/29 02:23:34;;;;;;;32.60;21.20;;;;;;;2.82;75.73;95104.66;4979836;28;20420;-67
2021/11/29 02:26:00;;;;;;;38.23;22.77;;;;;;;2.80;75.78;95106.59;4980755;28;20813;-68
2021/11/29 02:28:26;;;;;;;38.00;23.23;;;;;;;2.72;75.79;95112.53;5015834;28;20431;-68
2021/11/29 02:30:51;;;;;;;40.33;22.43;;;;;;;2.87;75.05;95110.16;5003690;28;20236;-69
2021/11/29 02:33:17;;;;;;;43.27;23.40;;;;;;;2.55;75.92;95112.44;4993700;28;20186;-69
2021/11/29 02:35:43;;;;;;;37.30;21.43;;;;;;;2.60;76.21;95114.56;4985091;28;20243;-69
2021/11/29 02:38:09;;;;;;;41.97;24.80;;;;;;;2.59;75.72;95113.78;4992981;28;20482;-72
2021/11/29 02:40:35;;;;;;;39.83;24.30;;;;;;;2.72;75.31;95112.53;5001544;28;20199;-68
2021/11/29 02:43:01;;;;;;;38.30;24.17;;;;;;;2.41;76.05;95113.00;5001088;28;20432;-70
2021/11/29 02:45:28;;;;;;;37.50;22.60;;;;;;;2.66;75.13;95120.91;4969718;28;20424;-68
2021/11/29 02:47:53;;;;;;;43.80;24.40;;;;;;;2.76;75.55;95126.78;4998120;28;20442;-68
2021/11/29 02:50:19;;;;;;;37.73;23.33;;;;;;;2.72;75.50;95135.81;4996871;28;20531;-69
2021/11/29 02:52:45;;;;;;;39.60;22.73;;;;;;;2.32;76.10;95139.78;4996539;28;20212;-69
2021/11/29 02:55:11;;;;;;;43.80;25.17;;;;;;;2.66;75.93;95141.59;4997674;28;20280;-67
2021/11/29 02:57:37;;;;;;;37.83;23.53;;;;;;;2.59;75.64;95146.56;4980110;28;20853;-68
2021/11/29 03:00:07;;;;;;;39.40;23.30;;;;;;;2.53;75.92;95153.16;5005668;28;20435;-68
2021/11/29 03:02:34;;;;;;;43.00;25.10;;;;;;;2.61;75.60;95153.22;5012415;28;20240;-69
2021/11/29 03:05:03;;;;;;;37.00;22.73;;;;;;;2.49;75.74;95164.78;5005905;28;20428;-68
2021/11/29 03:07:29;;;;;;;43.00;24.30;;;;;;;2.74;74.84;95157.97;4997794;28;20440;-66
2021/11/29 03:09:55;;;;;;;38.47;23.67;;;;;;;2.79;74.77;95160.09;4986856;28;20935;-70
2021/11/29 03:12:21;;;;;;;35.73;21.90;;;;;;;2.54;75.78;95161.75;4997295;28;20477;-68
2021/11/29 03:14:50;;;;;;;39.93;22.73;;;;;;;2.65;75.42;95169.25;5006143;28;20494;-71
2021/11/29 03:17:16;;;;;;;43.63;24.70;;;;;;;2.53;75.52;95171.25;4987061;28;20506;-68
2021/11/29 03:19:47;;;;;;;39.60;22.83;;;;;;;2.21;76.76;95164.91;4996708;28;20515;-69
2021/11/29 03:22:12;;;;;;;40.03;23.90;;;;;;;2.50;75.45;95176.75;4998677;28;20375;-67
2021/11/29 03:24:44;;;;;;;41.50;23.17;;;;;;;2.40;76.15;95186.38;5010166;28;20419;-68
2021/11/29 03:27:10;;;;;;;33.43;20.70;;;;;;;2.55;75.03;95187.44;5009747;28;20205;-67
2021/11/29 03:29:35;;;;;;;42.53;23.90;;;;;;;2.82;74.53;95187.47;5004380;28;20456;-68
2021/11/29 03:32:03;;;;;;;41.43;23.13;;;;;;;2.69;75.11;95198.19;5002213;28;20447;-70
2021/11/29 03:34:31;;;;;;;42.43;23.23;;;;;;;2.69;74.57;95190.44;4998506;28;20556;-68
2021/11/29 03:36:58;;;;;;;36.33;22.40;;;;;;;2.70;75.01;95205.00;4979245;28;20467;-68
2021/11/29 03:39:27;;;;;;;41.70;24.00;;;;;;;2.63;74.66;95194.44;4995043;28;20719;-67
2021/11/29 03:41:55;;;;;;;37.87;22.97;;;;;;;2.73;74.18;95196.94;5001204;28;20498;-68
2021/11/29 03:44:21;;;;;;;35.93;23.27;;;;;;;2.73;74.47;95199.53;4984328;28;20782;-67
2021/11/29 03:46:49;;;;;;;39.33;22.17;;;;;;;2.65;74.61;95207.25;5005765;28;20448;-69
2021/11/29 03:49:15;;;;;;;39.10;21.40;;;;;;;2.50;75.01;95207.78;4981749;28;20276;-68
2021/11/29 03:51:40;;;;;;;37.60;21.93;;;;;;;2.53;75.00;95210.06;4993533;28;20439;-68
2021/11/29 03:54:06;;;;;;;42.10;22.57;;;;;;;2.71;74.57;95211.78;5001324;28;20428;-67
2021/11/29 03:56:33;;;;;;;37.47;22.73;;;;;;;2.71;74.27;95211.78;4994622;28;20260;-69
2021/11/29 03:58:59;;;;;;;42.20;25.07;;;;;;;2.87;74.20;95206.72;4981607;28;20424;-67
2021/11/29 04:01:24;;;;;;;38.07;22.33;;;;;;;2.70;74.62;95211.00;4993117;28;20445;-68
2021/11/29 04:03:50;;;;;;;38.23;23.07;;;;;;;2.73;74.36;95215.06;5007303;28;20231;-68
2021/11/29 04:06:16;;;;;;;38.00;22.50;;;;;;;3.13;73.07;95210.25;4998438;28;20295;-67
2021/11/29 04:08:41;;;;;;;38.40;22.37;;;;;;;3.03;72.33;95215.53;5001838;28;20632;-68
2021/11/29 04:11:07;;;;;;;43.83;22.50;;;;;;;3.09;72.58;95212.34;4995581;28;20704;-68
2021/11/29 04:13:33;;;;;;;45.03;23.37;;;;;;;3.07;72.54;95216.84;5005021;28;20216;-68
2021/11/29 04:15:59;;;;;;;38.97;21.80;;;;;;;2.85;72.84;95226.75;5013918;28;20260;-69
2021/11/29 04:18:24;;;;;;;36.37;20.70;;;;;;;2.81;73.28;95233.19;5002092;28;20452;-68
2021/11/29 04:20:50;;;;;;;33.17;20.40;;;;;;;2.97;72.98;95240.25;4997416;28;20191;-68
2021/11/29 04:23:16;;;;;;;35.30;21.13;;;;;;;3.32;72.15;95245.44;5003213;28;20176;-68
2021/11/29 04:25:55;;;;;;;36.13;21.37;;;;;;;3.34;71.55;95236.53;4996685;28;20180;-68
2021/11/29 04:28:21;;;;;;;42.10;20.50;;;;;;;3.01;72.75;95243.34;5003060;28;20181;-68
2021/11/29 04:30:46;;;;;;;38.90;22.60;;;;;;;3.02;72.61;95255.34;4992587;28;20424;-67
2021/11/29 04:33:12;;;;;;;40.57;23.13;;;;;;;2.69;73.45;95255.94;4992061;28;20568;-68
2021/11/29 04:35:38;;;;;;;37.27;22.00;;;;;;;2.95;72.93;95249.13;4999134;28;20184;-68
2021/11/29 04:38:03;;;;;;;41.20;22.27;;;;;;;2.85;73.81;95257.81;4991802;28;20216;-68
2021/11/29 04:40:29;;;;;;;38.43;22.17;;;;;;;2.69;74.11;95257.69;4991053;28;20268;-69
2021/11/29 04:42:55;;;;;;;42.73;23.43;;;;;;;3.13;73.77;95254.25;4991401;28;20181;-68
2021/11/29 04:45:21;;;;;;;40.63;23.97;;;;;;;2.80;74.08;95254.06;4992151;28;20443;-68
2021/11/29 04:47:46;;;;;;;41.90;23.33;;;;;;;2.67;74.21;95259.63;4994981;28;20205;-68
2021/11/29 04:50:12;;;;;;;46.50;24.57;;;;;;;2.80;74.08;95262.63;4990167;28;20393;-68
2021/11/29 04:52:38;;;;;;;45.40;22.50;;;;;;;2.66;74.32;95261.41;5000249;28;20176;-68
2021/11/29 04:55:04;;;;;;;44.70;21.90;;;;;;;2.92;74.33;95264.00;4996672;28;20184;-67
2021/11/29 04:57:30;;;;;;;44.00;24.10;;;;;;;2.93;74.30;95267.41;4992951;28;20213;-66
2021/11/29 04:59:55;;;;;;;40.07;22.50;;;;;;;2.68;75.16;95275.00;4992124;28;20427;-67
2021/11/29 05:02:21;;;;;;;36.17;21.13;;;;;;;2.87;74.40;95284.34;4993027;28;20189;-67
2021/11/29 05:04:47;;;;;;;33.87;19.73;;;;;;;2.57;75.34;95288.97;4999566;28;20181;-68
2021/11/29 05:07:14;;;;;;;32.30;19.03;;;;;;;2.37;75.96;95285.72;4992623;28;20938;-67
2021/11/29 05:09:41;;;;;;;35.43;21.10;;;;;;;2.67;75.31;95282.91;4984507;28;20593;-68
2021/11/29 05:12:08;;;;;;;37.27;21.83;;;;;;;2.68;75.10;95280.19;4999837;28;20435;-67
2021/11/29 05:14:34;;;;;;;38.20;20.93;;;;;;;2.82;75.39;95290.94;4995394;28;20479;-67
2021/11/29 05:16:59;;;;;;;38.93;22.50;;;;;;;2.98;74.37;95291.03;4996212;28;20464;-67
2021/11/29 05:19:25;;;;;;;37.37;22.87;;;;;;;2.83;74.28;95289.97;4996925;28;20267;-67
2021/11/29 05:21:50;;;;;;;38.23;21.00;;;;;;;2.53;75.84;95297.97;4997809;28;20711;-68
2021/11/29 05:24:16;;;;;;;42.53;20.93;;;;;;;2.69;75.33;95302.50;5005435;28;20185;-68
2021/11/29 05:26:42;;;;;;;37.30;21.90;;;;;;;2.35;76.56;95308.31;5012858;28;20196;-68
2021/11/29 05:29:07;;;;;;;40.30;21.80;;;;;;;2.40;76.80;95313.06;4997225;28;20563;-67
2021/11/29 05:31:33;;;;;;;42.07;22.67;;;;;;;2.20;77.12;95313.19;4997000;28;20671;-67
2021/11/29 05:33:58;;;;;;;36.50;20.90;;;;;;;2.24;77.51;95309.38;4996555;28;20174;-67
2021/11/29 05:36:24;;;;;;;36.10;21.67;;;;;;;2.24;77.18;95324.88;4996287;28;20236;-68
2021/11/29 05:38:50;;;;;;;37.37;21.90;;;;;;;2.14;77.62;95322.34;5006897;28;20678;-68
2021/11/29 05:41:15;;;;;;;38.07;20.87;;;;;;;2.43;77.14;95323.94;4998215;28;20189;-67
2021/11/29 05:43:41;;;;;;;42.87;22.60;;;;;;;2.37;76.68;95331.47;4995626;28;20181;-67
2021/11/29 05:46:07;;;;;;;39.80;23.30;;;;;;;2.29;77.22;95335.59;4995766;28;20201;-68
2021/11/29 05:48:33;;;;;;;39.37;21.13;;;;;;;2.21;77.35;95340.69;4995332;28;20189;-68
2021/11/29 05:51:00;;;;;;;44.40;23.47;;;;;;;2.36;76.78;95337.59;4995379;28;20428;-68
2021/11/29 05:53:25;;;;;;;42.10;23.60;;;;;;;2.32;76.96;95346.59;4995175;28;20188;-68
2021/11/29 05:55:52;;;;;;;47.00;24.10;;;;;;;2.30;76.85;95359.69;4985238;28;20420;-68
2021/11/29 05:58:17;;;;;;;43.20;24.10;;;;;;;2.27;76.78;95367.72;4994576;28;20200;-69
2021/11/29 06:00:43;;;;;;;48.53;24.87;;;;;;;2.14;77.22;95365.50;4994686;28;20408;-68
2021/11/29 06:03:09;;;;;;;38.77;21.87;;;;;;;2.35;76.60;95362.63;4984602;28;20200;-68
2021/11/29 06:05:35;;;;;;;39.10;21.10;;;;;;;2.24;76.95;95370.59;4997929;28;20180;-69
2021/11/29 06:08:01;;;;;;;30.67;17.90;;;;;;;2.12;76.37;95377.75;4999615;28;20440;-67
2021/11/29 06:10:26;;;;;;;36.80;19.13;;;;;;;2.22;75.92;95381.09;4994260;28;20452;-68
2021/11/29 06:12:52;;;;;;;35.37;20.07;;;;;;;2.19;75.46;95383.94;4982364;28;20191;-68
2021/11/29 06:15:18;;;;;;;33.50;18.17;;;;;;;2.03;76.15;95394.91;4996838;28;20262;-69
2021/11/29 06:17:44;;;;;;;35.80;19.40;;;;;;;2.49;74.99;95394.09;5010093;28;20700;-70
2021/11/29 06:20:11;;;;;;;29.90;17.30;;;;;;;2.34;74.46;95397.19;5002505;28;20465;-69
2021/11/29 06:22:37;;;;;;;25.60;16.27;;;;;;;2.08;75.59;95407.41;4995417;28;20506;-69
2021/11/29 06:25:04;;;;;;;30.30;17.87;;;;;;;2.29;74.88;95400.22;4983963;28;20439;-67
2021/11/29 06:27:29;;;;;;;29.17;15.90;;;;;;;2.48;74.57;95408.81;4995929;28;20323;-68
2021/11/29 06:29:55;;;;;;;29.30;16.67;;;;;;;2.12;75.42;95398.41;4999938;28;20464;-69
2021/11/29 06:32:20;;;;;;;29.30;16.97;;;;;;;2.39;74.70;95409.69;4994519;28;20185;-68
2021/11/29 06:34:46;;;;;;;31.13;17.93;;;;;;;2.17;74.77;95422.03;5006141;28;20180;-68
2021/11/29 06:37:12;;;;;;;35.20;18.40;;;;;;;2.15;75.48;95429.97;5005724;28;20232;-67
2021/11/29 06:39:39;;;;;;;30.60;17.50;;;;;;;2.03;75.96;95427.69;5002344;28;20243;-68
2021/11/29 06:42:06;;;;;;;33.60;17.63;;;;;;;2.34;74.99;95432.59;4994976;28;20460;-68
2021/11/29 06:44:31;;;;;;;29.37;17.43;;;;;;;2.18;75.23;95433.22;4998738;28;20466;-69
2021/11/29 06:46:57;;;;;;;31.60;17.27;;;;;;;2.11;75.35;95448.47;5004896;28;20444;-68
2021/11/29 06:49:23;;;;;;;33.93;18.30;;;;;;;2.13;75.42;95447.38;5005596;28;20451;-68
2021/11/29 06:51:49;;;;;;;63.47;24.00;;;;;;;2.14;74.82;95438.66;5001375;28;20592;-68
2021/11/29 06:54:15;;;;;;;63.03;24.50;;;;;;;2.13;75.37;95451.75;4990367;28;20279;-68
2021/11/29 06:56:41;;;;;;;36.57;17.57;;;;;;;2.29;74.95;95451.13;4994347;28;20904;-68
2021/11/29 06:59:07;;;;;;;38.83;17.93;;;;;;;2.08;75.26;95453.94;4992974;28;20455;-68
2021/11/29 07:01:32;;;;;;;37.73;17.17;;;;;;;2.02;75.52;95462.25;4994860;28;20558;-67
2021/11/29 07:03:59;;;;;;;28.37;17.70;;;;;;;2.16;74.46;95461.78;4976324;28;20196;-68
2021/11/29 07:06:26;;;;;;;43.90;18.67;;;;;;;2.15;74.95;95465.31;4995756;28;20205;-67
2021/11/29 07:08:51;;;;;;;45.10;19.33;;;;;;;2.19;74.48;95477.00;5009084;28;20610;-69
2021/11/29 07:11:17;;;;;;;48.07;18.57;;;;;;;2.05;74.60;95474.88;4994226;28;20450;-68
2021/11/29 07:13:43;;;;;;;39.87;18.70;;;;;;;2.02;74.42;95485.50;5002055;28;20188;-68
2021/11/29 07:16:12;;;;;;;41.07;16.93;;;;;;;2.14;73.87;95494.72;4987310;28;20288;-68
2021/11/29 07:18:43;;;;;;;40.23;16.80;;;;;;;2.30;73.68;95500.09;4981382;28;20526;-69
2021/11/29 07:21:10;;;;;;;25.50;13.83;;;;;;;2.18;73.53;95508.97;4994208;28;20425;-69
2021/11/29 07:23:37;;;;;;;22.90;14.23;;;;;;;2.07;74.19;95506.56;5000946;28;20208;-69
2021/11/29 07:26:03;;;;;;;26.03;14.20;;;;;;;1.97;73.70;95514.34;5002856;28;20481;-68
2021/11/29 07:28:28;;;;;;;31.53;13.57;;;;;;;2.04;73.43;95527.50;4995454;28;20417;-68
2021/11/29 07:30:54;;;;;;;22.80;13.80;;;;;;;1.95;73.70;95531.78;4994886;28;20264;-70
2021/11/29 07:33:19;;;;;;;24.43;14.17;;;;;;;2.10;73.53;95537.31;4994778;28;20189;-67
2021/11/29 07:35:46;;;;;;;19.30;13.00;;;;;;;2.13;73.25;95534.44;5005132;28;20219;-69
2021/11/29 07:38:13;;;;;;;24.03;12.67;;;;;;;2.21;73.52;95536.28;5005166;28;20232;-69
2021/11/29 07:40:38;;;;;;;22.83;12.97;;;;;;;2.26;72.95;95545.28;4992688;28;20420;-68
2021/11/29 07:43:06;;;;;;;23.90;13.00;;;;;;;1.89;73.05;95553.78;4992873;28;20487;-68
2021/11/29 07:45:33;;;;;;;16.97;11.33;;;;;;;2.18;72.60;95552.91;4992881;28;20730;-68
2021/11/29 07:47:58;;;;;;;19.57;11.70;;;;;;;2.27;72.52;95554.66;5001454;28;20864;-69
2021/11/29 07:50:24;;;;;;;17.27;11.17;;;;;;;2.10;72.96;95550.22;5000250;28;20419;-69
2021/11/29 07:52:50;;;;;;;27.57;12.30;;;;;;;2.01;73.14;95564.00;4993757;28;20196;-68
2021/11/29 07:55:18;;;;;;;19.73;11.47;;;;;;;2.06;72.82;95566.94;4984229;28;20185;-68
2021/11/29 07:57:44;;;;;;;40.03;12.47;;;;;;;1.96;72.95;95575.56;5000743;28;20503;-68
2021/11/29 08:00:17;;;;;;;16.90;9.70;;;;;;;2.07;72.07;95571.16;4993716;28;20462;-67
2021/11/29 08:02:44;;;;;;;16.80;10.57;;;;;;;2.09;71.66;95580.41;4982840;28;20749;-68
2021/11/29 08:05:09;;;;;;;21.07;10.87;;;;;;;2.11;71.69;95582.88;4992976;28;20934;-68
2021/11/29 08:07:35;;;;;;;24.07;11.67;;;;;;;2.02;72.14;95583.72;4974000;28;20523;-67
2021/11/29 08:10:01;;;;;;;22.03;11.33;;;;;;;2.47;71.07;95588.22;4983290;28;20291;-68
2021/11/29 08:12:26;;;;;;;20.13;11.23;;;;;;;2.53;70.10;95594.59;5000565;28;20189;-68
2021/11/29 08:14:53;;;;;;;17.77;9.77;;;;;;;2.67;69.72;95591.53;4983139;28;20270;-69
2021/11/29 08:17:20;;;;;;;17.07;10.90;;;;;;;2.50;69.89;95593.13;4992227;28;20200;-67
2021/11/29 08:19:46;;;;;;;24.90;11.20;;;;;;;2.43;69.65;95587.69;4995634;28;20510;-67
2021/11/29 08:22:13;;;;;;;18.60;10.93;;;;;;;2.64;69.14;95589.25;4992182;28;20423;-68
2021/11/29 08:24:39;;;;;;;19.07;10.33;;;;;;;2.61;70.13;95597.28;4991665;28;20424;-68
2021/11/29 08:27:05;;;;;;;18.17;9.93;;;;;;;2.59;70.01;95605.19;4992318;28;20532;-68
2021/11/29 08:29:32;;;;;;;17.30;10.23;;;;;;;2.71;69.13;95605.81;4992247;28;21103;-67
2021/11/29 08:31:58;;;;;;;17.13;10.50;;;;;;;2.52;69.86;95616.22;4992695;28;20424;-69
2021/11/29 08:34:23;;;;;;;18.10;10.63;;;;;;;2.77;69.06;95617.38;4999145;28;20496;-69
2021/11/29 08:36:49;;;;;;;20.43;9.90;;;;;;;2.80;68.95;95614.50;4990920;28;20480;-67
2021/11/29 08:39:14;;;;;;;13.40;8.53;;;;;;;2.54;69.79;95617.72;4980584;28;20188;-67
2021/11/29 08:41:40;;;;;;;19.27;9.30;;;;;;;2.44;69.90;95628.09;5000692;28;20185;-67
2021/11/29 08:44:06;;;;;;;12.57;8.97;;;;;;;2.39;69.82;95635.47;4992391;28;20224;-68
2021/11/29 08:46:32;;;;;;;13.90;8.80;;;;;;;2.15;70.28;95643.66;5003646;28;20236;-67
2021/11/29 08:48:58;;;;;;;13.47;8.60;;;;;;;2.01;70.16;95633.75;5003050;28;20178;-69
2021/11/29 08:51:24;;;;;;;18.27;8.77;;;;;;;2.25;69.71;95641.91;5009553;28;20883;-68
2021/11/29 08:53:50;;;;;;;10.70;7.63;;;;;;;2.19;70.34;95642.44;4987438;28;20424;-67
2021/11/29 08:56:17;;;;;;;15.90;9.20;;;;;;;2.18;70.19;95645.97;5002545;28;20558;-68
2021/11/29 08:58:43;;;;;;;17.20;9.43;;;;;;;2.46;69.40;95646.06;4994370;28;20201;-68
2021/11/29 09:01:09;;;;;;;15.40;8.67;;;;;;;2.46;69.61;95652.03;4992282;28;20475;-68
2021/11/29 09:03:35;;;;;;;16.17;9.47;;;;;;;2.64;69.06;95650.53;4992272;28;20515;-69
2021/11/29 09:06:00;;;;;;;16.90;8.63;;;;;;;2.45;69.61;95658.19;4998995;28;20439;-68
2021/11/29 09:08:27;;;;;;;17.77;8.90;;;;;;;2.46;69.14;95659.00;5000614;28;20188;-69
2021/11/29 09:10:53;;;;;;;14.67;8.73;;;;;;;2.73;69.12;95663.41;4998964;28;20335;-69
2021/11/29 09:13:20;;;;;;;12.93;7.57;;;;;;;2.61;68.95;95667.94;4973153;28;20447;-68
2021/11/29 09:15:47;;;;;;;14.73;7.13;;;;;;;2.68;69.00;95667.38;4998571;28;20436;-68
2021/11/29 09:18:13;;;;;;;11.53;5.83;;;;;;;2.64;68.11;95661.66;4987305;28;20201;-68
2021/11/29 09:20:39;;;;;;;16.13;7.30;;;;;;;2.84;67.96;95670.19;4992931;28;20428;-68
2021/11/29 09:23:06;;;;;;;16.50;7.43;;;;;;;2.78;67.75;95677.69;5001726;28;20463;-69
2021/11/29 09:25:33;;;;;;;15.77;7.00;;;;;;;2.90;67.82;95677.38;5001610;28;20492;-68
2021/11/29 09:28:00;;;;;;;10.53;6.43;;;;;;;2.99;67.46;95674.91;4998617;28;20440;-69
2021/11/29 09:30:27;;;;;;;12.90;7.00;;;;;;;2.91;67.94;95693.72;4999685;28;20432;-67
2021/11/29 09:32:52;;;;;;;16.87;6.43;;;;;;;3.28;66.07;95685.13;4998258;28;20420;-67
2021/11/29 09:35:19;;;;;;;27.60;10.00;;;;;;;3.35;66.08;95687.94;4974262;28;20907;-69
2021/11/29 09:37:45;;;;;;;13.60;6.67;;;;;;;3.09;66.53;95691.19;4982356;28;20676;-69
2021/11/29 09:40:16;;;;;;;13.77;5.87;;;;;;;3.15;66.62;95695.00;4992067;28;20432;-68
2021/11/29 09:42:41;;;;;;;11.70;6.03;;;;;;;3.57;64.91;95691.09;4999642;28;20408;-68
2021/11/29 09:45:08;;;;;;;10.40;6.13;;;;;;;3.61;65.72;95695.03;4981923;28;20434;-67
2021/11/29 09:47:34;;;;;;;9.70;5.97;;;;;;;3.93;64.18;95698.91;4975188;28;20272;-68
2021/11/29 09:50:00;;;;;;;14.20;6.53;;;;;;;3.94;63.82;95695.34;4975626;28;20826;-67
2021/11/29 09:52:25;;;;;;;12.07;5.57;;;;;;;3.40;65.57;95698.72;4989269;28;20688;-67
2021/11/29 09:54:52;;;;;;;11.33;6.20;;;;;;;3.53;65.25;95714.69;4993388;28;20567;-67
2021/11/29 09:57:19;;;;;;;11.00;6.17;;;;;;;3.50;64.63;95709.81;5000379;28;20309;-68
2021/11/29 09:59:46;;;;;;;11.60;5.70;;;;;;;3.71;64.64;95713.91;4994928;28;20462;-68
2021/11/29 10:02:13;;;;;;;10.70;6.17;;;;;;;3.72;65.17;95714.75;5002300;28;20443;-68
2021/11/29 10:04:48;;;;;;;16.57;6.50;;;;;;;4.00;63.24;95711.13;4999540;28;20509;-68
2021/11/29 10:07:30;;;;;;;7.97;5.33;;;;;;;3.64;64.78;95715.47;4990290;28;20895;-68
2021/11/29 10:10:04;;;;;;;12.53;6.37;;;;;;;3.72;64.53;95712.97;4990330;28;20409;-69
2021/11/29 10:12:30;;;;;;;10.77;5.77;;;;;;;3.77;63.52;95713.34;4994142;28;20434;-68
2021/11/29 10:15:22;;;;;;;12.30;5.73;;;;;;;4.04;62.65;95722.00;4994429;28;20939;-67
2021/11/29 10:17:51;;;;;;;16.00;4.60;;;;;;;3.81;63.10;95717.25;4986105;28;20572;-68
2021/11/29 10:20:16;;;;;;;8.10;4.73;;;;;;;3.65;63.72;95723.09;4991434;28;20429;-69
2021/11/29 10:23:00;;;;;;;10.77;5.07;;;;;;;4.06;63.94;95725.28;4979008;28;20458;-69
2021/11/29 10:25:25;;;;;;;10.03;5.20;;;;;;;4.25;63.26;95726.09;4996953;28;20247;-67
2021/11/29 10:27:52;;;;;;;10.13;4.33;;;;;;;4.24;63.10;95729.66;5002283;28;20436;-69
2021/11/29 10:30:20;;;;;;;5.80;3.83;;;;;;;3.82;63.82;95724.06;4977910;28;20181;-68
2021/11/29 10:32:48;;;;;;;10.43;4.60;;;;;;;4.20;62.52;95725.72;4995285;28;20426;-69
2021/11/29 10:35:21;;;;;;;10.23;4.90;;;;;;;4.38;62.89;95729.13;4995436;28;20500;-67
2021/11/29 10:37:49;;;;;;;9.80;4.90;;;;;;;4.12;62.86;95718.69;4991001;28;20554;-68
2021/11/29 10:40:16;;;;;;;8.87;4.50;;;;;;;3.97;63.06;95731.34;4977172;28;20436;-68
2021/11/29 10:42:41;;;;;;;11.33;3.80;;;;;;;4.36;62.76;95725.03;4981434;28;20424;-67
2021/11/29 10:45:20;;;;;;;6.60;4.63;;;;;;;3.81;63.46;95721.66;5004128;28;20775;-67
2021/11/29 10:47:48;;;;;;;15.10;4.30;;;;;;;3.55;63.84;95737.88;4994800;28;20276;-67
2021/11/29 10:50:14;;;;;;;12.20;4.80;;;;;;;3.97;63.96;95733.94;4994824;28;20807;-71
2021/11/29 10:52:40;;;;;;;7.00;4.80;;;;;;;3.57;65.09;95733.38;4995144;28;20585;-68
2021/11/29 10:55:06;;;;;;;12.90;5.10;;;;;;;3.74;64.43;95736.97;4994740;28;20429;-68
2021/11/29 10:57:32;;;;;;;8.30;3.90;;;;;;;3.56;64.95;95741.28;4994233;28;20216;-67
2021/11/29 10:59:57;;;;;;;15.30;4.50;;;;;;;3.62;64.49;95740.72;4994126;28;20416;-68
2021/11/29 11:02:27;;;;;;;8.27;4.13;;;;;;;3.48;64.34;95737.63;4993844;28;20203;-69
2021/11/29 11:05:06;;;;;;;6.77;4.43;;;;;;;3.80;63.41;95731.19;4994525;28;20207;-68
2021/11/29 11:07:34;;;;;;;6.73;4.30;;;;;;;3.88;62.99;95743.41;4995088;28;20507;-68
2021/11/29 11:10:00;;;;;;;6.90;3.00;;;;;;;3.92;63.37;95741.34;4985551;28;20787;-67
2021/11/29 11:12:31;;;;;;;12.93;4.57;;;;;;;4.00;63.39;95744.84;4995310;28;20748;-68
2021/11/29 11:15:02;;;;;;;7.90;3.93;;;;;;;3.95;63.51;95751.41;4994958;28;20436;-68
2021/11/29 11:17:30;;;;;;;5.37;3.90;;;;;;;3.76;64.21;95755.78;5002864;28;20474;-68
2021/11/29 11:19:58;;;;;;;5.57;3.03;;;;;;;3.47;63.00;95761.91;4983275;28;20961;-69
2021/11/29 11:22:33;;;;;;;8.13;3.70;;;;;;;3.49;64.12;95766.94;4997918;28;20523;-69
2021/11/29 11:25:06;;;;;;;12.30;4.43;;;;;;;3.49;64.47;95762.59;4994598;28;20922;-67